Time;durP1;ratioP1;P1;durP2;ratioP2;P2;SDS_P1;SDS_P2;PMS_P1;PMS_P2;Temp;Humidity;BMP_temperature;BMP_pressure;BME280_temperature;BME280_humidity;BME280_pressure;Samples;Min_cycle;Max_cycle;Signal;HPM_P1;HPM_P2
2021/12/07 00:01:13;;;;;;;4.37;3.60;;;1.70;99.90;;;;;;5080485;28;20482;-65
2021/12/07 00:03:41;;;;;;;5.03;4.20;;;1.70;99.90;;;;;;5081109;28;20487;-65
2021/12/07 00:06:09;;;;;;;4.40;3.77;;;1.70;99.90;;;;;;5081304;28;20435;-65
2021/12/07 00:08:42;;;;;;;4.33;3.63;;;1.60;99.90;;;;;;5080818;28;20464;-64
2021/12/07 00:11:10;;;;;;;4.63;3.87;;;1.70;99.90;;;;;;5080625;28;20464;-65
2021/12/07 00:13:39;;;;;;;5.47;4.43;;;1.70;99.90;;;;;;5081349;28;20492;-64
2021/12/07 00:16:09;;;;;;;4.67;3.80;;;1.70;99.90;;;;;;5081177;28;20496;-64
2021/12/07 00:18:36;;;;;;;4.37;3.97;;;1.70;99.90;;;;;;5081538;28;20522;-64
2021/12/07 00:21:05;;;;;;;4.80;4.03;;;1.70;99.90;;;;;;5081142;28;20461;-64
2021/12/07 00:23:33;;;;;;;4.47;3.80;;;1.70;99.90;;;;;;5080708;28;20453;-64
2021/12/07 00:26:01;;;;;;;4.80;4.30;;;1.80;99.90;;;;;;5081499;28;20458;-64
2021/12/07 00:28:28;;;;;;;5.20;4.37;;;1.80;99.90;;;;;;5081360;28;20465;-64
2021/12/07 00:31:03;;;;;;;5.20;3.87;;;1.70;99.90;;;;;;5080497;28;20764;-64
2021/12/07 00:33:37;;;;;;;4.83;4.13;;;1.70;99.90;;;;;;5081068;28;20889;-64
2021/12/07 00:36:07;;;;;;;6.03;3.77;;;1.70;99.90;;;;;;5080398;28;20549;-64
2021/12/07 00:38:34;;;;;;;4.60;4.13;;;1.70;99.90;;;;;;5080599;28;20449;-64
2021/12/07 00:41:03;;;;;;;4.10;3.47;;;1.70;99.90;;;;;;5079840;28;20468;-64
2021/12/07 00:43:33;;;;;;;5.67;3.90;;;1.80;99.90;;;;;;5080061;28;20472;-64
2021/12/07 00:46:01;;;;;;;5.70;3.60;;;1.80;99.90;;;;;;5080174;28;20492;-64
2021/12/07 00:48:29;;;;;;;4.10;3.70;;;1.80;99.90;;;;;;5080391;28;20738;-64
2021/12/07 00:50:56;;;;;;;3.93;3.57;;;1.70;99.90;;;;;;5079317;28;20521;-65
2021/12/07 00:53:25;;;;;;;4.00;3.60;;;1.60;99.90;;;;;;5079123;28;20515;-64
2021/12/07 00:55:58;;;;;;;3.93;3.50;;;1.60;99.90;;;;;;5080245;28;20493;-65
2021/12/07 00:58:28;;;;;;;4.07;3.67;;;1.60;99.90;;;;;;5079461;28;20966;-65
2021/12/07 01:01:00;;;;;;;4.83;3.40;;;1.70;99.90;;;;;;5079213;28;20462;-64
2021/12/07 01:03:28;;;;;;;4.70;3.70;;;1.60;99.90;;;;;;5079500;28;20461;-65
2021/12/07 01:06:06;;;;;;;5.23;4.20;;;1.70;99.90;;;;;;5079647;28;20919;-65
2021/12/07 01:09:01;;;;;;;4.90;4.00;;;1.70;99.90;;;;;;5079163;28;20895;-65
2021/12/07 01:25:40;;;;;;;4.67;3.90;;;1.70;99.90;;;;;;5036175;28;20445;-66
2021/12/07 01:28:16;;;;;;;4.60;4.10;;;1.80;99.90;;;;;;5076517;28;20488;-66
2021/12/07 01:30:51;;;;;;;4.10;3.70;;;1.80;99.90;;;;;;5077880;28;20465;-66
2021/12/07 01:33:41;;;;;;;4.60;4.10;;;1.80;99.90;;;;;;5077645;28;20877;-66
2021/12/07 01:44:41;;;;;;;4.23;3.83;;;1.70;99.90;;;;;;5076674;28;20752;-66
2021/12/07 01:47:37;;;;;;;5.43;4.77;;;1.70;99.90;;;;;;5076922;28;20538;-66
2021/12/07 01:50:29;;;;;;;5.70;5.10;;;1.70;99.90;;;;;;5057607;28;20892;-66
2021/12/07 01:53:14;;;;;;;5.83;4.53;;;1.60;99.90;;;;;;5057769;28;20457;-66
2021/12/07 02:01:20;;;;;;;4.73;4.33;;;1.50;99.90;;;;;;5056757;28;20528;-67
2021/12/07 02:03:49;;;;;;;5.30;4.80;;;1.50;99.90;;;;;;5057317;28;20465;-67
2021/12/07 02:06:17;;;;;;;5.10;4.70;;;1.60;99.90;;;;;;5057157;28;20454;-67
2021/12/07 02:08:44;;;;;;;5.90;5.30;;;1.50;99.90;;;;;;5057382;28;20465;-67
2021/12/07 02:11:14;;;;;;;5.70;5.10;;;1.60;99.90;;;;;;5065433;28;20788;-67
2021/12/07 02:16:30;;;;;;;6.10;5.60;;;1.60;99.90;;;;;;5076853;28;21052;-67
2021/12/07 02:19:03;;;;;;;6.10;5.43;;;1.60;99.90;;;;;;5077014;28;20498;-67
2021/12/07 02:21:32;;;;;;;6.40;5.40;;;1.50;99.90;;;;;;5076790;28;20461;-67
2021/12/07 02:23:59;;;;;;;5.80;5.20;;;1.40;99.90;;;;;;5077032;28;20500;-67
2021/12/07 02:26:29;;;;;;;6.67;5.40;;;1.40;99.90;;;;;;5077050;28;20461;-67
2021/12/07 02:28:57;;;;;;;6.80;5.33;;;1.40;99.90;;;;;;5077078;28;20511;-66
2021/12/07 02:31:24;;;;;;;7.00;5.27;;;1.40;99.90;;;;;;5076784;28;20521;-66
2021/12/07 02:33:51;;;;;;;6.03;5.47;;;1.40;99.90;;;;;;5076981;28;20526;-65
2021/12/07 02:36:19;;;;;;;5.63;5.10;;;1.40;99.90;;;;;;5077008;28;20538;-65
2021/12/07 02:38:48;;;;;;;5.47;4.97;;;1.40;99.90;;;;;;5077299;28;20809;-64
2021/12/07 02:41:15;;;;;;;5.33;4.80;;;1.40;99.90;;;;;;5076225;28;20461;-63
2021/12/07 02:43:44;;;;;;;5.30;4.67;;;1.40;99.90;;;;;;5077091;28;20900;-64
2021/12/07 02:46:12;;;;;;;6.50;5.50;;;1.30;99.90;;;;;;5076130;28;20489;-64
2021/12/07 02:48:39;;;;;;;7.67;6.20;;;1.30;99.90;;;;;;5076702;28;20467;-64
2021/12/07 02:51:08;;;;;;;6.00;5.40;;;1.30;99.90;;;;;;5076597;28;20935;-64
2021/12/07 02:53:37;;;;;;;6.37;5.73;;;1.30;99.90;;;;;;5076957;28;20856;-64
2021/12/07 02:56:07;;;;;;;8.50;6.63;;;1.30;99.90;;;;;;5076641;28;20489;-64
2021/12/07 02:58:35;;;;;;;7.47;6.70;;;1.30;99.90;;;;;;5076515;28;20469;-64
2021/12/07 03:01:07;;;;;;;8.70;7.80;;;1.30;99.90;;;;;;5075931;28;20471;-65
2021/12/07 03:03:39;;;;;;;8.60;7.10;;;1.30;99.90;;;;;;5078487;28;20446;-65
2021/12/07 03:06:15;;;;;;;7.63;6.50;;;1.30;99.90;;;;;;5080334;28;20485;-65
2021/12/07 03:28:09;;;;;;;16.40;13.40;;;1.40;99.90;;;;;;5080666;28;20535;-67
2021/12/07 03:30:36;;;;;;;20.30;15.20;;;1.50;99.90;;;;;;5080036;28;20906;-67
2021/12/07 03:33:07;;;;;;;17.03;14.93;;;1.60;99.90;;;;;;5080025;28;20469;-67
2021/12/07 03:35:34;;;;;;;21.17;16.57;;;1.60;99.90;;;;;;5079562;28;20493;-68
2021/12/07 03:38:01;;;;;;;22.20;16.50;;;1.60;99.90;;;;;;5079713;28;20496;-68
2021/12/07 03:40:31;;;;;;;24.63;16.50;;;1.60;99.90;;;;;;5079456;28;20519;-68
2021/12/07 03:42:58;;;;;;;23.93;16.80;;;1.70;99.90;;;;;;5079641;28;20752;-68
2021/12/07 03:45:28;;;;;;;23.07;17.20;;;1.70;99.90;;;;;;5079079;28;20675;-68
2021/12/07 03:47:55;;;;;;;22.93;16.63;;;1.80;99.90;;;;;;5083332;28;20877;-68
2021/12/07 03:50:22;;;;;;;22.60;16.63;;;1.80;99.90;;;;;;5099751;28;20514;-68
2021/12/07 03:52:50;;;;;;;20.30;15.53;;;1.90;99.90;;;;;;5093688;28;20511;-68
2021/12/07 03:55:18;;;;;;;21.90;16.40;;;1.90;99.90;;;;;;5079107;28;20471;-68
2021/12/07 03:57:46;;;;;;;24.30;18.40;;;2.00;99.90;;;;;;5079005;28;20907;-68
2021/12/07 04:00:15;;;;;;;24.23;17.53;;;2.00;99.90;;;;;;5078948;28;20462;-68
2021/12/07 04:02:45;;;;;;;24.20;18.50;;;2.10;99.90;;;;;;5079393;28;20739;-67
2021/12/07 04:05:18;;;;;;;23.47;18.23;;;2.10;99.90;;;;;;5079160;28;20469;-67
2021/12/07 04:07:45;;;;;;;24.53;17.40;;;2.10;99.90;;;;;;5079350;28;20495;-68
2021/12/07 04:10:15;;;;;;;23.67;16.40;;;2.20;99.90;;;;;;5079149;28;20891;-67
2021/12/07 04:12:42;;;;;;;20.27;15.73;;;2.20;99.90;;;;;;5079598;28;20543;-67
2021/12/07 04:15:11;;;;;;;26.20;17.07;;;2.20;99.90;;;;;;5078195;28;20465;-67
2021/12/07 04:17:38;;;;;;;25.80;18.63;;;2.20;99.90;;;;;;5079043;28;20947;-67
2021/12/07 04:20:09;;;;;;;26.53;18.10;;;2.30;99.90;;;;;;5078795;28;20461;-67
2021/12/07 04:22:36;;;;;;;34.10;20.57;;;2.30;99.90;;;;;;5078890;28;21022;-67
2021/12/07 04:25:12;;;;;;;25.73;18.43;;;2.40;99.90;;;;;;5078130;28;20512;-67
2021/12/07 04:27:39;;;;;;;29.40;19.23;;;2.40;99.90;;;;;;5078962;28;20457;-67
2021/12/07 04:30:10;;;;;;;32.30;19.27;;;2.50;99.90;;;;;;5078703;28;20836;-67
2021/12/07 04:32:37;;;;;;;34.10;20.60;;;2.50;99.90;;;;;;5078728;28;20887;-68
2021/12/07 04:35:08;;;;;;;33.87;20.57;;;2.50;99.90;;;;;;5078204;28;20507;-68
2021/12/07 04:37:35;;;;;;;31.23;20.80;;;2.60;99.90;;;;;;5078381;28;20758;-68
2021/12/07 04:40:03;;;;;;;30.20;19.40;;;2.60;99.90;;;;;;5078448;28;20530;-68
2021/12/07 04:42:30;;;;;;;34.33;20.43;;;2.60;99.90;;;;;;5078371;28;20462;-68
2021/12/07 04:45:01;;;;;;;34.17;21.67;;;2.70;99.90;;;;;;5077400;28;20822;-69
2021/12/07 04:47:36;;;;;;;39.10;22.40;;;2.70;99.90;;;;;;5077185;28;20466;-69
2021/12/07 04:50:27;;;;;;;29.77;20.50;;;2.80;99.90;;;;;;5090030;28;20469;-69
2021/12/07 04:58:24;;;;;;;38.13;20.77;;;2.80;99.90;;;;;;5077205;28;20857;-68
2021/12/07 05:00:52;;;;;;;39.77;20.23;;;2.80;99.90;;;;;;5077512;28;20745;-68
2021/12/07 05:03:19;;;;;;;41.20;22.40;;;2.80;99.90;;;;;;5076067;28;20469;-68
2021/12/07 05:05:49;;;;;;;36.37;22.37;;;2.90;99.90;;;;;;5076466;28;20461;-67
2021/12/07 05:08:32;;;;;;;28.57;20.60;;;2.90;99.90;;;;;;5076454;28;20465;-67
2021/12/07 05:13:55;;;;;;;46.57;25.47;;;2.90;99.90;;;;;;5077141;28;20519;-67
2021/12/07 05:16:45;;;;;;;36.73;22.33;;;2.90;99.90;;;;;;5077597;28;20485;-67
2021/12/07 05:24:52;;;;;;;36.87;20.87;;;2.90;99.90;;;;;;5077614;28;20526;-65
2021/12/07 05:38:02;;;;;;;31.83;19.50;;;2.90;99.90;;;;;;5077962;28;20522;-64
2021/12/07 05:40:34;;;;;;;36.47;19.90;;;2.90;99.90;;;;;;5078531;28;20955;-63
2021/12/07 05:43:03;;;;;;;31.20;18.57;;;3.00;99.90;;;;;;5077984;28;20488;-63
2021/12/07 05:45:33;;;;;;;37.30;18.20;;;3.00;99.90;;;;;;5078554;28;20473;-64
2021/12/07 05:48:02;;;;;;;36.10;22.20;;;3.00;99.90;;;;;;5078239;28;20458;-63
2021/12/07 05:50:32;;;;;;;34.03;18.13;;;3.00;99.90;;;;;;5078976;28;20465;-64
2021/12/07 05:53:00;;;;;;;37.00;19.13;;;3.00;99.90;;;;;;5078590;28;20518;-63
2021/12/07 05:55:28;;;;;;;40.40;18.13;;;3.00;99.90;;;;;;5078410;28;20457;-63
2021/12/07 05:57:57;;;;;;;40.47;18.37;;;3.10;99.90;;;;;;5079493;28;20539;-64
2021/12/07 06:00:27;;;;;;;32.40;18.80;;;3.10;99.90;;;;;;5079100;28;20828;-63
2021/12/07 06:02:56;;;;;;;38.80;19.67;;;3.20;99.90;;;;;;5079136;28;20569;-63
2021/12/07 06:05:26;;;;;;;37.10;20.17;;;3.20;99.90;;;;;;5078498;28;20515;-64
2021/12/07 06:07:53;;;;;;;38.43;19.10;;;3.20;99.90;;;;;;5078946;28;20457;-64
2021/12/07 06:10:20;;;;;;;32.13;21.00;;;3.20;99.90;;;;;;5078856;28;20468;-64
2021/12/07 06:12:47;;;;;;;40.73;20.87;;;3.20;99.90;;;;;;5079070;28;20458;-64
2021/12/07 06:15:19;;;;;;;42.97;19.50;;;3.20;99.90;;;;;;5080403;28;20753;-64
2021/12/07 06:17:47;;;;;;;46.57;20.60;;;3.20;99.90;;;;;;5078365;28;20559;-65
2021/12/07 06:20:15;;;;;;;32.40;18.77;;;3.30;99.90;;;;;;5077999;28;20523;-64
2021/12/07 06:22:44;;;;;;;35.07;19.93;;;3.30;99.90;;;;;;5077245;28;20460;-65
2021/12/07 06:25:15;;;;;;;31.70;18.90;;;3.30;99.90;;;;;;5077185;28;20949;-64
2021/12/07 06:27:48;;;;;;;34.23;19.80;;;3.30;99.90;;;;;;5081989;28;20487;-64
2021/12/07 06:30:17;;;;;;;36.77;20.03;;;3.30;99.90;;;;;;5073748;28;20468;-65
2021/12/07 06:32:44;;;;;;;42.60;17.70;;;3.30;99.90;;;;;;5076570;28;20915;-65
2021/12/07 06:35:11;;;;;;;35.90;17.57;;;3.40;99.90;;;;;;5077112;28;20465;-65
2021/12/07 06:37:39;;;;;;;37.37;18.17;;;3.40;99.90;;;;;;5078688;28;20848;-64
2021/12/07 06:40:11;;;;;;;34.40;17.97;;;3.40;99.90;;;;;;5080571;28;20523;-64
2021/12/07 06:42:39;;;;;;;29.80;18.63;;;3.40;99.90;;;;;;5080808;28;20469;-64
2021/12/07 06:45:13;;;;;;;29.77;17.37;;;3.50;99.90;;;;;;5079940;28;20469;-65
2021/12/07 06:47:42;;;;;;;28.67;15.60;;;3.50;99.90;;;;;;5079042;28;20461;-65
2021/12/07 06:50:11;;;;;;;35.90;16.40;;;3.50;99.90;;;;;;5078264;28;20902;-64
2021/12/07 06:52:39;;;;;;;30.23;17.93;;;3.50;99.90;;;;;;5077227;28;20473;-64
2021/12/07 06:55:07;;;;;;;38.83;16.77;;;3.50;99.90;;;;;;5079460;28;20465;-64
2021/12/07 06:57:35;;;;;;;30.80;16.30;;;3.50;99.90;;;;;;5078422;28;20846;-64
2021/12/07 07:00:04;;;;;;;25.47;14.90;;;3.50;99.90;;;;;;5079821;28;20473;-64
2021/12/07 07:02:33;;;;;;;29.40;16.17;;;3.50;99.90;;;;;;5078242;28;20461;-64
2021/12/07 07:05:05;;;;;;;37.57;16.03;;;3.50;99.90;;;;;;5078982;28;20811;-64
2021/12/07 07:07:34;;;;;;;26.37;15.00;;;3.50;99.90;;;;;;5079250;28;20462;-65
2021/12/07 07:10:04;;;;;;;24.30;14.60;;;3.50;99.90;;;;;;5080203;28;20522;-65
2021/12/07 07:12:34;;;;;;;28.13;14.50;;;3.50;99.90;;;;;;5082229;28;20465;-65
2021/12/07 07:15:01;;;;;;;30.37;14.23;;;3.50;99.90;;;;;;5080583;28;20552;-65
2021/12/07 07:17:32;;;;;;;30.73;13.70;;;3.50;99.90;;;;;;5080871;28;20552;-65
2021/12/07 07:20:01;;;;;;;31.63;13.50;;;3.50;99.90;;;;;;5079828;28;20497;-65
2021/12/07 07:22:32;;;;;;;26.70;13.80;;;3.50;99.90;;;;;;5080084;28;20466;-65
2021/12/07 07:24:59;;;;;;;30.47;15.60;;;3.60;99.90;;;;;;5077640;28;20467;-65
2021/12/07 07:27:26;;;;;;;28.17;15.20;;;3.60;99.90;;;;;;5079272;28;20461;-65
2021/12/07 07:29:55;;;;;;;29.23;15.47;;;3.60;99.90;;;;;;5078909;28;20470;-65
2021/12/07 07:32:22;;;;;;;29.20;14.30;;;3.60;99.90;;;;;;5078330;28;20476;-65
2021/12/07 07:34:52;;;;;;;24.30;14.03;;;3.50;99.90;;;;;;5078130;28;20461;-66
2021/12/07 07:37:19;;;;;;;27.33;14.93;;;3.60;99.90;;;;;;5079441;28;20497;-65
2021/12/07 07:39:47;;;;;;;30.87;19.20;;;3.60;99.90;;;;;;5079768;28;20904;-65
2021/12/07 07:42:14;;;;;;;30.40;16.70;;;3.60;99.90;;;;;;5079829;28;20465;-65
2021/12/07 07:44:41;;;;;;;38.93;15.77;;;3.60;99.90;;;;;;5079957;28;20809;-65
2021/12/07 07:47:08;;;;;;;28.40;15.80;;;3.60;99.90;;;;;;5079304;28;20485;-65
2021/12/07 07:49:35;;;;;;;28.10;16.10;;;3.60;99.90;;;;;;5078628;28;20461;-65
2021/12/07 07:52:03;;;;;;;24.60;16.50;;;3.60;99.90;;;;;;5080025;28;20465;-65
2021/12/07 07:54:30;;;;;;;37.97;16.90;;;3.50;99.90;;;;;;5079732;28;20465;-65
2021/12/07 07:57:01;;;;;;;22.77;16.73;;;3.50;99.90;;;;;;5079174;28;20504;-65
2021/12/07 07:59:28;;;;;;;32.20;18.80;;;3.50;99.90;;;;;;5079750;28;20461;-65
2021/12/07 08:01:55;;;;;;;30.73;16.53;;;3.50;99.90;;;;;;5079250;28;20511;-65
2021/12/07 08:04:22;;;;;;;28.77;16.07;;;3.60;99.90;;;;;;5079188;28;20461;-65
2021/12/07 08:06:49;;;;;;;33.10;17.40;;;3.60;99.90;;;;;;5078801;28;20457;-65
2021/12/07 08:09:19;;;;;;;27.67;15.90;;;3.60;99.90;;;;;;5078967;28;20522;-65
2021/12/07 08:11:46;;;;;;;31.20;17.10;;;3.60;99.90;;;;;;5078970;28;20514;-65
2021/12/07 08:14:15;;;;;;;34.57;17.13;;;3.60;99.90;;;;;;5079145;28;20741;-65
2021/12/07 08:16:43;;;;;;;30.13;17.67;;;3.60;99.90;;;;;;5078762;28;20515;-65
2021/12/07 08:19:10;;;;;;;33.23;17.47;;;3.60;99.90;;;;;;5079008;28;20938;-65
2021/12/07 08:21:37;;;;;;;27.77;16.90;;;3.60;99.90;;;;;;5078363;28;20458;-65
2021/12/07 08:24:05;;;;;;;25.80;17.03;;;3.50;99.90;;;;;;5077709;28;20907;-65
2021/12/07 08:26:33;;;;;;;25.43;15.83;;;3.50;99.90;;;;;;5077090;28;20464;-65
2021/12/07 08:29:01;;;;;;;22.43;14.60;;;3.50;99.90;;;;;;5078514;28;20476;-65
2021/12/07 08:31:32;;;;;;;24.33;15.00;;;3.60;99.90;;;;;;5077699;28;20493;-65
2021/12/07 08:34:00;;;;;;;24.67;16.00;;;3.60;99.90;;;;;;5078569;28;20548;-65
2021/12/07 08:36:30;;;;;;;20.60;15.23;;;3.70;99.90;;;;;;5078008;28;20466;-65
2021/12/07 08:38:59;;;;;;;24.30;14.97;;;3.60;99.90;;;;;;5076676;28;20462;-65
2021/12/07 08:41:26;;;;;;;26.17;15.87;;;3.70;99.90;;;;;;5077753;28;20457;-65
2021/12/07 08:43:59;;;;;;;26.63;16.70;;;3.70;99.90;;;;;;5078304;28;20796;-65
2021/12/07 08:46:28;;;;;;;20.03;15.43;;;3.70;99.90;;;;;;5078034;28;20571;-65
2021/12/07 08:48:56;;;;;;;23.83;14.83;;;3.70;99.90;;;;;;5077393;28;20550;-65
2021/12/07 08:51:23;;;;;;;26.70;13.17;;;3.70;99.90;;;;;;5077885;28;20469;-65
2021/12/07 08:54:21;;;;;;;27.57;15.00;;;3.70;99.90;;;;;;5078188;28;20560;-65
2021/12/07 08:59:44;;;;;;;23.13;14.47;;;3.80;99.90;;;;;;5077908;28;20441;-65
2021/12/07 09:02:16;;;;;;;28.13;13.47;;;3.70;99.90;;;;;;5077086;28;20899;-65
2021/12/07 09:04:45;;;;;;;20.97;13.47;;;3.70;99.90;;;;;;5077344;28;20511;-65
2021/12/07 09:07:19;;;;;;;21.13;13.87;;;3.80;99.90;;;;;;5077689;28;20461;-65
2021/12/07 09:09:47;;;;;;;26.00;13.30;;;3.80;99.90;;;;;;5077930;28;20472;-65
2021/12/07 09:12:20;;;;;;;27.43;13.93;;;3.70;99.90;;;;;;5077598;28;20514;-65
2021/12/07 09:14:52;;;;;;;21.93;12.80;;;3.60;99.90;;;;;;5077392;28;20504;-65
2021/12/07 09:17:23;;;;;;;26.20;12.47;;;3.60;99.90;;;;;;5077637;28;20537;-65
2021/12/07 09:19:52;;;;;;;27.00;12.77;;;3.70;99.90;;;;;;5077509;28;20504;-65
2021/12/07 09:22:19;;;;;;;26.70;12.63;;;3.70;99.90;;;;;;5076624;28;20476;-65
2021/12/07 09:24:46;;;;;;;19.33;12.07;;;3.70;99.90;;;;;;5076912;28;20461;-65
2021/12/07 09:27:13;;;;;;;29.50;12.77;;;3.60;99.90;;;;;;5077206;28;20466;-65
2021/12/07 09:29:43;;;;;;;23.93;13.33;;;3.60;99.90;;;;;;5077781;28;20899;-65
2021/12/07 09:32:10;;;;;;;26.33;15.20;;;3.60;99.90;;;;;;5077039;28;20552;-65
2021/12/07 09:34:39;;;;;;;18.70;13.40;;;3.60;99.90;;;;;;5077365;28;20923;-65
2021/12/07 09:37:07;;;;;;;23.43;12.33;;;3.60;99.90;;;;;;5076745;28;20505;-65
2021/12/07 09:39:37;;;;;;;24.30;13.73;;;3.60;99.90;;;;;;5077689;28;20552;-65
2021/12/07 09:42:09;;;;;;;27.00;13.00;;;3.60;99.90;;;;;;5077732;28;20556;-65
2021/12/07 09:44:38;;;;;;;23.80;13.53;;;3.70;99.90;;;;;;5077496;28;20515;-65
2021/12/07 09:47:08;;;;;;;22.03;13.37;;;3.60;99.90;;;;;;5077113;28;20930;-65
2021/12/07 09:49:35;;;;;;;23.87;13.37;;;3.70;99.90;;;;;;5076903;28;20548;-65
2021/12/07 09:52:02;;;;;;;25.50;12.50;;;3.80;99.90;;;;;;5077647;28;20849;-65
2021/12/07 09:54:30;;;;;;;21.00;13.30;;;3.80;99.90;;;;;;5077307;28;20468;-65
2021/12/07 09:56:57;;;;;;;24.43;12.90;;;3.70;99.90;;;;;;5077446;28;20493;-65
2021/12/07 09:59:24;;;;;;;26.87;16.03;;;3.70;99.90;;;;;;5077392;28;20461;-65
2021/12/07 10:01:54;;;;;;;23.17;13.30;;;3.80;99.90;;;;;;5076951;28;20508;-65
2021/12/07 10:04:27;;;;;;;21.73;13.57;;;3.80;99.90;;;;;;5077321;28;20556;-65
2021/12/07 10:06:54;;;;;;;23.63;13.90;;;3.80;99.90;;;;;;5076417;28;20465;-65
2021/12/07 10:09:21;;;;;;;18.37;15.47;;;3.80;99.90;;;;;;5075281;28;20545;-65
2021/12/07 10:11:53;;;;;;;24.40;15.13;;;3.80;99.90;;;;;;5076837;28;20499;-65
2021/12/07 10:14:21;;;;;;;28.20;16.77;;;3.80;99.90;;;;;;5078017;28;20483;-65
2021/12/07 10:16:50;;;;;;;28.73;15.40;;;3.80;99.90;;;;;;5080440;28;20547;-65
2021/12/07 10:19:28;;;;;;;23.63;16.40;;;3.80;99.90;;;;;;5077747;28;20525;-65
2021/12/07 10:22:01;;;;;;;24.93;16.93;;;3.80;99.90;;;;;;5078080;28;20762;-65
2021/12/07 10:24:37;;;;;;;21.90;16.33;;;3.70;99.90;;;;;;5079605;28;20522;-65
2021/12/07 10:27:11;;;;;;;27.00;17.40;;;3.80;99.90;;;;;;5078865;28;20590;-65
2021/12/07 10:29:43;;;;;;;28.03;17.83;;;3.90;99.90;;;;;;5075238;28;20465;-65
2021/12/07 10:32:10;;;;;;;23.80;15.57;;;4.00;99.90;;;;;;5080008;28;20484;-65
2021/12/07 10:34:40;;;;;;;27.73;16.20;;;4.00;99.90;;;;;;5080296;28;20540;-65
2021/12/07 10:37:12;;;;;;;31.03;16.87;;;4.00;99.90;;;;;;5079505;28;20911;-65
2021/12/07 10:39:46;;;;;;;32.23;17.30;;;4.10;99.90;;;;;;5077817;28;20461;-65
2021/12/07 10:42:19;;;;;;;22.87;16.30;;;4.10;99.90;;;;;;5080838;28;20503;-65
2021/12/07 10:44:46;;;;;;;27.80;16.00;;;4.20;99.90;;;;;;5078166;28;20845;-65
2021/12/07 10:47:17;;;;;;;22.20;16.30;;;4.30;99.90;;;;;;5080136;28;20494;-65
2021/12/07 10:49:50;;;;;;;24.33;16.77;;;4.70;99.90;;;;;;5087499;28;20465;-65
2021/12/07 10:52:28;;;;;;;24.20;16.10;;;5.00;99.90;;;;;;5079898;28;20887;-65
2021/12/07 10:55:03;;;;;;;24.00;15.20;;;5.30;99.90;;;;;;5079277;28;20904;-65
2021/12/07 10:57:38;;;;;;;24.60;14.30;;;5.50;99.90;;;;;;5080064;28;20499;-65
2021/12/07 11:00:20;;;;;;;20.60;14.50;;;5.50;99.90;;;;;;5077656;28;20464;-65
2021/12/07 11:02:51;;;;;;;26.00;13.80;;;5.60;99.90;;;;;;5078754;28;20779;-65
2021/12/07 11:05:22;;;;;;;20.07;12.67;;;5.70;99.90;;;;;;5078922;28;20502;-65
2021/12/07 11:07:52;;;;;;;18.90;12.13;;;5.80;99.90;;;;;;5078386;28;21060;-66
2021/12/07 11:10:23;;;;;;;21.77;12.43;;;5.90;99.90;;;;;;5079043;28;20549;-65
2021/12/07 11:13:00;;;;;;;22.67;13.37;;;5.90;99.90;;;;;;5077514;28;20462;-65
2021/12/07 11:15:29;;;;;;;22.57;13.07;;;6.00;99.90;;;;;;5076194;28;20461;-65
2021/12/07 11:17:59;;;;;;;18.33;12.37;;;6.30;99.90;;;;;;5078533;28;20959;-65
2021/12/07 11:20:27;;;;;;;26.50;13.73;;;6.60;99.90;;;;;;5077538;28;20837;-65
2021/12/07 11:22:58;;;;;;;17.80;13.00;;;6.50;99.90;;;;;;5077342;28;20910;-65
2021/12/07 11:31:18;;;;;;;20.47;13.97;;;5.70;99.90;;;;;;5074578;28;20444;-64
2021/12/07 11:33:45;;;;;;;20.70;13.73;;;5.60;99.90;;;;;;5077960;28;20779;-64
2021/12/07 11:36:22;;;;;;;23.00;13.47;;;5.70;99.90;;;;;;5076693;28;20504;-64
2021/12/07 11:38:51;;;;;;;27.07;13.83;;;5.90;99.90;;;;;;5078873;28;20588;-64
2021/12/07 11:41:22;;;;;;;25.70;13.60;;;6.00;99.90;;;;;;5078902;28;20473;-64
2021/12/07 11:44:01;;;;;;;21.40;13.93;;;5.90;99.90;;;;;;5078438;28;20470;-64
2021/12/07 11:46:32;;;;;;;18.20;12.90;;;5.70;99.90;;;;;;5078062;28;20505;-64
2021/12/07 11:49:26;;;;;;;19.27;12.47;;;5.40;99.90;;;;;;5076807;28;20954;-64
2021/12/07 11:51:57;;;;;;;21.10;13.37;;;5.20;99.90;;;;;;5075343;28;20564;-65
2021/12/07 11:54:28;;;;;;;20.37;10.10;;;5.20;99.90;;;;;;5077646;28;20499;-64
2021/12/07 11:56:56;;;;;;;20.20;9.80;;;5.00;99.90;;;;;;5077921;28;20482;-65
2021/12/07 11:59:25;;;;;;;20.37;10.73;;;5.00;99.90;;;;;;5075295;28;20588;-65
2021/12/07 12:01:52;;;;;;;19.93;9.73;;;5.00;99.90;;;;;;5075884;28;20457;-65
2021/12/07 12:04:21;;;;;;;18.43;11.00;;;5.10;99.90;;;;;;5077822;28;20493;-65
2021/12/07 12:06:49;;;;;;;20.67;9.83;;;5.10;99.90;;;;;;5077601;28;20915;-65
2021/12/07 12:09:17;;;;;;;26.57;10.70;;;5.10;99.90;;;;;;5078048;28;20892;-65
2021/12/07 12:11:55;;;;;;;20.63;10.83;;;5.00;99.90;;;;;;5077711;28;20789;-65
2021/12/07 12:14:39;;;;;;;26.57;9.80;;;4.90;99.90;;;;;;5076117;28;20489;-65
2021/12/07 12:17:19;;;;;;;22.20;8.77;;;4.80;99.90;;;;;;5077415;28;20457;-65
2021/12/07 12:20:04;;;;;;;18.70;8.60;;;4.60;99.90;;;;;;5076283;28;20565;-65
2021/12/07 12:22:36;;;;;;;17.30;7.50;;;4.70;99.90;;;;;;5077234;28;20888;-64
2021/12/07 12:25:08;;;;;;;20.70;8.77;;;4.80;99.90;;;;;;5076854;28;20466;-64
2021/12/07 12:27:37;;;;;;;11.53;6.83;;;4.70;99.90;;;;;;5077542;28;20465;-65
2021/12/07 12:30:19;;;;;;;12.80;8.77;;;4.70;99.90;;;;;;5076769;28;20458;-65
2021/12/07 12:32:53;;;;;;;16.07;8.87;;;4.70;99.90;;;;;;5076292;28;20576;-64
2021/12/07 12:35:29;;;;;;;15.23;7.90;;;4.60;99.90;;;;;;5076138;28;20461;-65
2021/12/07 12:37:56;;;;;;;16.87;7.80;;;4.70;99.90;;;;;;5074249;28;20461;-65
2021/12/07 12:40:25;;;;;;;15.33;7.47;;;4.60;99.90;;;;;;5076887;28;20457;-65
2021/12/07 12:42:54;;;;;;;17.37;8.63;;;4.70;99.90;;;;;;5077111;28;20499;-65
2021/12/07 12:45:30;;;;;;;23.10;7.43;;;4.80;99.90;;;;;;5075972;28;20581;-65
2021/12/07 12:48:01;;;;;;;11.47;6.07;;;5.00;99.90;;;;;;5073720;28;20461;-65
2021/12/07 12:50:35;;;;;;;23.30;7.77;;;5.20;99.90;;;;;;5076240;28;20480;-65
2021/12/07 12:53:05;;;;;;;15.00;7.03;;;5.40;99.90;;;;;;5076711;28;20553;-65
2021/12/07 12:55:45;;;;;;;14.60;7.00;;;5.40;99.90;;;;;;5076751;28;20460;-65
2021/12/07 12:58:18;;;;;;;12.33;6.43;;;5.50;99.90;;;;;;5076317;28;20496;-65
2021/12/07 13:01:10;;;;;;;12.93;7.03;;;5.60;99.90;;;;;;5075160;28;20538;-65
2021/12/07 13:04:11;;;;;;;12.10;5.10;;;5.70;99.90;;;;;;5067097;28;20465;-65
2021/12/07 13:06:50;;;;;;;11.63;6.00;;;5.50;99.90;;;;;;4988658;28;20891;-65
2021/12/07 13:09:30;;;;;;;10.87;4.97;;;5.40;99.90;;;;;;4976784;28;20465;-65
2021/12/07 13:12:05;;;;;;;10.80;5.33;;;5.40;99.90;;;;;;5035859;28;20477;-65
2021/12/07 13:14:39;;;;;;;11.30;5.60;;;5.30;99.90;;;;;;5074057;28;20559;-65
2021/12/07 13:17:16;;;;;;;9.43;4.50;;;5.30;99.90;;;;;;5077168;28;20822;-65
2021/12/07 13:20:38;;;;;;;5.97;3.87;;;5.20;99.90;;;;;;5077495;28;20580;-65
2021/12/07 13:23:12;;;;;;;9.90;4.97;;;5.20;99.90;;;;;;4995328;28;20469;-64
2021/12/07 13:25:43;;;;;;;7.00;4.47;;;5.10;99.90;;;;;;4999049;28;20504;-64
2021/12/07 13:28:18;;;;;;;11.97;5.27;;;5.10;99.90;;;;;;5050093;28;20465;-64
2021/12/07 13:30:55;;;;;;;9.43;4.10;;;5.10;99.90;;;;;;5076065;28;20469;-64
2021/12/07 13:33:37;;;;;;;5.93;3.97;;;5.00;99.90;;;;;;5075820;28;20484;-64
2021/12/07 13:36:46;;;;;;;9.27;3.23;;;5.00;99.90;;;;;;5076123;28;20782;-64
2021/12/07 13:39:47;;;;;;;7.90;4.10;;;4.90;99.90;;;;;;5065372;28;20497;-64
2021/12/07 13:42:28;;;;;;;7.47;3.63;;;4.80;1.00;;;;;;5075970;28;20461;-64
2021/12/07 13:45:03;;;;;;;9.50;3.70;;;4.80;1.00;;;;;;5072059;28;20457;-64
2021/12/07 13:47:35;;;;;;;7.47;3.80;;;4.70;99.90;;;;;;5075434;28;20465;-64
2021/12/07 13:50:07;;;;;;;5.37;3.40;;;4.60;1.00;;;;;;5074954;28;20485;-64
2021/12/07 13:52:37;;;;;;;10.23;4.73;;;4.60;1.00;;;;;;5072878;28;20473;-64
2021/12/07 13:55:10;;;;;;;9.00;3.80;;;4.60;47.00;;;;;;5075567;28;20555;-64
2021/12/07 13:57:39;;;;;;;8.43;4.00;;;4.70;99.90;;;;;;5076383;28;20900;-64
2021/12/07 14:00:13;;;;;;;5.63;3.87;;;4.60;1.00;;;;;;5075609;28;20547;-64
2021/12/07 14:02:49;;;;;;;7.73;4.10;;;4.50;1.00;;;;;;5066304;28;20457;-64
2021/12/07 14:05:19;;;;;;;10.33;3.67;;;4.50;1.00;;;;;;5071644;28;20538;-64
2021/12/07 14:07:50;;;;;;;5.57;3.70;;;4.50;99.90;;;;;;5075181;28;20465;-64
2021/12/07 14:10:22;;;;;;;16.70;4.50;;;4.50;26.60;;;;;;5075604;28;20551;-64
2021/12/07 14:12:50;;;;;;;8.83;4.17;;;4.50;25.50;;;;;;5075128;28;20931;-64
2021/12/07 14:15:21;;;;;;;8.67;4.07;;;4.40;2.10;;;;;;5076575;28;20461;-64
2021/12/07 14:17:52;;;;;;;5.40;3.67;;;4.30;1.00;;;;;;5076373;28;20461;-64
2021/12/07 14:20:36;;;;;;;6.63;3.53;;;4.30;1.00;;;;;;5076232;28;20551;-64
2021/12/07 14:23:15;;;;;;;6.13;3.30;;;4.30;56.50;;;;;;5075768;28;20469;-64
2021/12/07 14:25:51;;;;;;;9.37;3.67;;;4.20;9.40;;;;;;5076012;28;20898;-64
2021/12/07 14:28:36;;;;;;;7.37;3.57;;;4.10;13.30;;;;;;5075919;28;20882;-64